Alexander 3 — SW6137 — position and weather

sailwx.info

Track history (hours):
 
Tides and Currents Weather Stations Pressure Air Temp Water Temp Dewpoint Dewpoint Depression Visibility Wind Speed Wind Dir Waves Ship Positions

Alexander 3

Last reported at 2015-Apr-01 10:33 UTC. Time now 2015-Apr-01 22:38 UTC.
Position N 37°56' E 023°37'.

Length 28 m; draft 5.6 m.

Type: Tug. MMSI: 240733000.

Date/timePositionNaut miles runAvg speedWind from/ knotsBaromVisibWave heightAir tempDewpointWater temp
2015-Apr-01 10:33N 37°56' E 023°37'0 0.0
2015-Apr-01 09:33N 37°56' E 023°37'0 0.0
2015-Apr-01 08:33N 37°56' E 023°37'0 0.0
2015-Apr-01 07:33N 37°56' E 023°37'0 0.0
2015-Apr-01 06:33N 37°56' E 023°37'0 0.0
2015-Apr-01 05:33N 37°56' E 023°37'0 0.0
2015-Apr-01 04:33N 37°56' E 023°37'0 0.0
2015-Apr-01 03:33N 37°56' E 023°37'0 0.0
2015-Mar-30 10:33N 37°56' E 023°37'0 0.0
2015-Mar-30 09:33N 37°56' E 023°37'0 0.0
2015-Mar-30 08:33N 37°56' E 023°37'2 1.6
2015-Mar-30 07:33N 37°57' E 023°36'1 0.6
2015-Mar-30 06:33N 37°57' E 023°37'1 1.4
2015-Mar-30 05:33N 37°57' E 023°35'2 1.9
2015-Mar-30 04:33N 37°56' E 023°36'1 0.9
2015-Mar-30 03:33N 37°56' E 023°37'2 0.1
2015-Mar-28 12:33N 37°57' E 023°35'0 0.2
2015-Mar-28 11:33N 37°57' E 023°35'1 1.0
2015-Mar-28 10:33N 37°57' E 023°37'0 0.0
2015-Mar-28 09:33N 37°57' E 023°37'0 0.0
2015-Mar-28 08:33N 37°57' E 023°37'0 0.0
2015-Mar-28 07:33N 37°57' E 023°37'0 0.0
2015-Mar-28 06:33N 37°57' E 023°37'1 1.2
2015-Mar-28 05:33N 37°57' E 023°35'2 2.0
2015-Mar-28 04:33N 37°56' E 023°37'0 0.0
2015-Mar-27 12:33N 37°56' E 023°37'1 1.4
2015-Mar-27 11:34N 37°56' E 023°36'2 1.6
2015-Mar-27 10:33N 37°57' E 023°37'0 0.0
2015-Mar-27 09:33N 37°57' E 023°37'0 0.0
2015-Mar-27 08:33N 37°57' E 023°37'0 0.0
2015-Mar-27 07:31N 37°57' E 023°37'2 1.6
2015-Mar-27 06:33N 37°56' E 023°36'2 1.6
2015-Mar-27 05:33N 37°56' E 023°38'0 0.0
2015-Mar-27 04:33N 37°56' E 023°38'0 0.0
2015-Mar-27 03:33N 37°56' E 023°38'0 0.0
2015-Mar-27 02:33N 37°56' E 023°38'0 0.0
2015-Mar-27 01:33N 37°56' E 023°38'0 0.0
2015-Mar-27 00:33N 37°56' E 023°38'2 1.6
2015-Mar-26 23:32N 37°57' E 023°37'0 0.0
2015-Mar-26 22:33N 37°57' E 023°37'1 0.7
2015-Mar-26 21:33N 37°57' E 023°36'1 1.2
2015-Mar-26 20:33N 37°56' E 023°37'4 3.6
2015-Mar-26 19:32N 37°58' E 023°33'4 4.2
2015-Mar-26 18:31N 38°02' E 023°31'0 0.3
2015-Mar-26 17:33N 38°02' E 023°31'0 0.0
2015-Mar-26 16:33N 38°02' E 023°31'0 0.0
2015-Mar-26 15:16N 38°02' E 023°31'0 0.0
2015-Mar-26 14:29N 38°02' E 023°31'0 0.0
2015-Mar-26 13:33N 38°02' E 023°31'0 0.0
2015-Mar-26 10:28N 38°02' E 023°31'0 0.0
2015-Mar-26 09:32N 38°02' E 023°31'0 0.0
2015-Mar-26 08:28N 38°02' E 023°31'0 0.0
2015-Mar-26 07:10N 38°02' E 023°31'0 0.0
2015-Mar-26 06:28N 38°02' E 023°31'0 0.0
2015-Mar-26 05:23N 38°02' E 023°31'0 0.0
2015-Mar-26 04:26N 38°02' E 023°31'0 0.0
2015-Mar-26 03:32N 38°02' E 023°31'0 0.0
2015-Mar-26 02:30N 38°02' E 023°31'0 0.0
2015-Mar-26 01:10N 38°02' E 023°31'0 0.0
2015-Mar-26 00:09N 38°02' E 023°31'0 0.0
2015-Mar-25 23:32N 38°02' E 023°31'0 0.0
2015-Mar-25 22:09N 38°02' E 023°31'0 0.0
2015-Mar-25 20:31N 38°02' E 023°31'0 0.0
2015-Mar-25 19:33N 38°02' E 023°31'0 0.0
2015-Mar-25 18:29N 38°02' E 023°31'0 0.0
2015-Mar-25 17:31N 38°02' E 023°31'0 0.0
2015-Mar-25 16:33N 38°02' E 023°31'0 0.0
2015-Mar-25 15:32N 38°02' E 023°31'0 0.0
2015-Mar-25 14:32N 38°02' E 023°31'0 0.0
2015-Mar-25 13:33N 38°02' E 023°31'0 0.0
2015-Mar-25 12:31N 38°02' E 023°31'0 0.0
2015-Mar-25 11:11N 38°02' E 023°31'0 0.0
2015-Mar-25 10:24N 38°02' E 023°31'0 0.0
2015-Mar-25 09:33N 38°02' E 023°31'0 0.0
2015-Mar-25 08:07N 38°02' E 023°31'0 0.6
2015-Mar-25 07:33N 38°02' E 023°31'4 3.8
2015-Mar-25 06:28N 37°58' E 023°33'2 2.5
2015-Mar-25 05:33N 37°57' E 023°35'2 0.1
2015-Mar-24 12:33N 37°56' E 023°37'2 2.1
2015-Mar-24 11:33N 37°56' E 023°35'2 1.5
2015-Mar-24 10:33N 37°57' E 023°36'2 1.9
2015-Mar-24 09:33N 37°57' E 023°34'0 0.0
2015-Mar-24 08:33N 37°57' E 023°34'0 0.0
2015-Mar-24 07:33N 37°57' E 023°34'3 2.8
2015-Mar-24 06:31N 37°56' E 023°37'0 0.0
2015-Mar-23 17:11N 37°56' E 023°37'1 2.0
2015-Mar-23 16:32N 37°57' E 023°36'0 0.0
2015-Mar-23 15:29N 37°57' E 023°36'0 0.0
2015-Mar-23 14:32N 37°57' E 023°36'0 0.1
2015-Mar-23 13:33N 37°57' E 023°36'0 0.0
2015-Mar-23 12:32N 37°57' E 023°36'2 1.5
2015-Mar-23 11:32N 37°56' E 023°37'0 0.0
2015-Mar-23 09:14N 37°56' E 023°37'0 0.7
2015-Mar-23 08:30N 37°56' E 023°38'1 1.5
2015-Mar-23 07:31N 37°57' E 023°37'0 0.0
2015-Mar-23 06:32N 37°57' E 023°37'1 1.1
2015-Mar-23 05:33N 37°57' E 023°35'0 0.2
2015-Mar-23 04:33N 37°57' E 023°35'1 0.1
2015-Mar-22 16:33N 37°57' E 023°36'0 0.4
2015-Mar-22 15:16N 37°57' E 023°37'0 0.0
2015-Mar-22 13:17N 37°57' E 023°37'0 0.0
2015-Mar-22 11:26N 37°57' E 023°37'  
Track history (hours):
 
Tides and Currents Weather Stations Pressure Air Temp Water Temp Dewpoint Dewpoint Depression Visibility Wind Speed Wind Dir Waves Ship Positions

Alexander 3

Last reported at 2015-Apr-01 10:33 UTC. Time now 2015-Apr-01 22:38 UTC.
Position N 37°56' E 023°37'.

Length 28 m; draft 5.6 m.

Type: Tug. MMSI: 240733000.

Date/timePositionNaut miles runAvg speedWind from/ knotsBaromVisibWave heightAir tempDewpointWater temp
2015-Apr-01 10:33N 37°56' E 023°37'0 0.0
2015-Apr-01 09:33N 37°56' E 023°37'0 0.0
2015-Apr-01 08:33N 37°56' E 023°37'0 0.0
2015-Apr-01 07:33N 37°56' E 023°37'0 0.0
2015-Apr-01 06:33N 37°56' E 023°37'0 0.0
2015-Apr-01 05:33N 37°56' E 023°37'0 0.0
2015-Apr-01 04:33N 37°56' E 023°37'0 0.0
2015-Apr-01 03:33N 37°56' E 023°37'0 0.0
2015-Mar-30 10:33N 37°56' E 023°37'0 0.0
2015-Mar-30 09:33N 37°56' E 023°37'0 0.0
2015-Mar-30 08:33N 37°56' E 023°37'2 1.6
2015-Mar-30 07:33N 37°57' E 023°36'1 0.6
2015-Mar-30 06:33N 37°57' E 023°37'1 1.4
2015-Mar-30 05:33N 37°57' E 023°35'2 1.9
2015-Mar-30 04:33N 37°56' E 023°36'1 0.9
2015-Mar-30 03:33N 37°56' E 023°37'2 0.1
2015-Mar-28 12:33N 37°57' E 023°35'0 0.2
2015-Mar-28 11:33N 37°57' E 023°35'1 1.0
2015-Mar-28 10:33N 37°57' E 023°37'0 0.0
2015-Mar-28 09:33N 37°57' E 023°37'0 0.0
2015-Mar-28 08:33N 37°57' E 023°37'0 0.0
2015-Mar-28 07:33N 37°57' E 023°37'0 0.0
2015-Mar-28 06:33N 37°57' E 023°37'1 1.2
2015-Mar-28 05:33N 37°57' E 023°35'2 2.0
2015-Mar-28 04:33N 37°56' E 023°37'0 0.0
2015-Mar-27 12:33N 37°56' E 023°37'1 1.4
2015-Mar-27 11:34N 37°56' E 023°36'2 1.6
2015-Mar-27 10:33N 37°57' E 023°37'0 0.0
2015-Mar-27 09:33N 37°57' E 023°37'0 0.0
2015-Mar-27 08:33N 37°57' E 023°37'0 0.0
2015-Mar-27 07:31N 37°57' E 023°37'2 1.6
2015-Mar-27 06:33N 37°56' E 023°36'2 1.6
2015-Mar-27 05:33N 37°56' E 023°38'0 0.0
2015-Mar-27 04:33N 37°56' E 023°38'0 0.0
2015-Mar-27 03:33N 37°56' E 023°38'0 0.0
2015-Mar-27 02:33N 37°56' E 023°38'0 0.0
2015-Mar-27 01:33N 37°56' E 023°38'0 0.0
2015-Mar-27 00:33N 37°56' E 023°38'2 1.6
2015-Mar-26 23:32N 37°57' E 023°37'0 0.0
2015-Mar-26 22:33N 37°57' E 023°37'1 0.7
2015-Mar-26 21:33N 37°57' E 023°36'1 1.2
2015-Mar-26 20:33N 37°56' E 023°37'4 3.6
2015-Mar-26 19:32N 37°58' E 023°33'4 4.2
2015-Mar-26 18:31N 38°02' E 023°31'0 0.3
2015-Mar-26 17:33N 38°02' E 023°31'0 0.0
2015-Mar-26 16:33N 38°02' E 023°31'0 0.0
2015-Mar-26 15:16N 38°02' E 023°31'0 0.0
2015-Mar-26 14:29N 38°02' E 023°31'0 0.0
2015-Mar-26 13:33N 38°02' E 023°31'0 0.0
2015-Mar-26 10:28N 38°02' E 023°31'0 0.0
2015-Mar-26 09:32N 38°02' E 023°31'0 0.0
2015-Mar-26 08:28N 38°02' E 023°31'0 0.0
2015-Mar-26 07:10N 38°02' E 023°31'0 0.0
2015-Mar-26 06:28N 38°02' E 023°31'0 0.0
2015-Mar-26 05:23N 38°02' E 023°31'0 0.0
2015-Mar-26 04:26N 38°02' E 023°31'0 0.0
2015-Mar-26 03:32N 38°02' E 023°31'0 0.0
2015-Mar-26 02:30N 38°02' E 023°31'0 0.0
2015-Mar-26 01:10N 38°02' E 023°31'0 0.0
2015-Mar-26 00:09N 38°02' E 023°31'0 0.0
2015-Mar-25 23:32N 38°02' E 023°31'0 0.0
2015-Mar-25 22:09N 38°02' E 023°31'0 0.0
2015-Mar-25 20:31N 38°02' E 023°31'0 0.0
2015-Mar-25 19:33N 38°02' E 023°31'0 0.0
2015-Mar-25 18:29N 38°02' E 023°31'0 0.0
2015-Mar-25 17:31N 38°02' E 023°31'0 0.0
2015-Mar-25 16:33N 38°02' E 023°31'0 0.0
2015-Mar-25 15:32N 38°02' E 023°31'0 0.0
2015-Mar-25 14:32N 38°02' E 023°31'0 0.0
2015-Mar-25 13:33N 38°02' E 023°31'0 0.0
2015-Mar-25 12:31N 38°02' E 023°31'0 0.0
2015-Mar-25 11:11N 38°02' E 023°31'0 0.0
2015-Mar-25 10:24N 38°02' E 023°31'0 0.0
2015-Mar-25 09:33N 38°02' E 023°31'0 0.0
2015-Mar-25 08:07N 38°02' E 023°31'0 0.6
2015-Mar-25 07:33N 38°02' E 023°31'4 3.8
2015-Mar-25 06:28N 37°58' E 023°33'2 2.5
2015-Mar-25 05:33N 37°57' E 023°35'2 0.1
2015-Mar-24 12:33N 37°56' E 023°37'2 2.1
2015-Mar-24 11:33N 37°56' E 023°35'2 1.5
2015-Mar-24 10:33N 37°57' E 023°36'2 1.9
2015-Mar-24 09:33N 37°57' E 023°34'0 0.0
2015-Mar-24 08:33N 37°57' E 023°34'0 0.0
2015-Mar-24 07:33N 37°57' E 023°34'3 2.8
2015-Mar-24 06:31N 37°56' E 023°37'0 0.0
2015-Mar-23 17:11N 37°56' E 023°37'1 2.0
2015-Mar-23 16:32N 37°57' E 023°36'0 0.0
2015-Mar-23 15:29N 37°57' E 023°36'0 0.0
2015-Mar-23 14:32N 37°57' E 023°36'0 0.1
2015-Mar-23 13:33N 37°57' E 023°36'0 0.0
2015-Mar-23 12:32N 37°57' E 023°36'2 1.5
2015-Mar-23 11:32N 37°56' E 023°37'0 0.0
2015-Mar-23 09:14N 37°56' E 023°37'0 0.7
2015-Mar-23 08:30N 37°56' E 023°38'1 1.5
2015-Mar-23 07:31N 37°57' E 023°37'0 0.0
2015-Mar-23 06:32N 37°57' E 023°37'1 1.1
2015-Mar-23 05:33N 37°57' E 023°35'0 0.2
2015-Mar-23 04:33N 37°57' E 023°35'1 0.1
2015-Mar-22 16:33N 37°57' E 023°36'0 0.4
2015-Mar-22 15:16N 37°57' E 023°37'0 0.0
2015-Mar-22 13:17N 37°57' E 023°37'0 0.0
2015-Mar-22 11:26N 37°57' E 023°37'  

Dump ship's entire track history